Time;durP1;ratioP1;P1;durP2;ratioP2;P2;SDS_P1;SDS_P2;PMS_P1;PMS_P2;Temp;Humidity;BMP_temperature;BMP_pressure;BME280_temperature;BME280_humidity;BME280_pressure;Samples;Min_cycle;Max_cycle;Signal;HPM_P1;HPM_P2
2022/12/09 00:01:06;;;;;;;;;15.20;12.40;;;;;2.63;85.81;98964.03;5077393;28;8818;-58
2022/12/09 00:03:34;;;;;;;;;10.00;10.00;;;;;2.65;85.77;98962.16;5077137;28;8856;-57
2022/12/09 00:06:02;;;;;;;;;14.40;13.20;;;;;2.66;86.22;98963.84;5077858;28;8826;-58
2022/12/09 00:08:30;;;;;;;;;14.80;14.60;;;;;2.67;86.04;98958.50;5077569;28;8865;-58
2022/12/09 00:10:58;;;;;;;;;14.40;13.60;;;;;2.69;85.75;98951.38;5077378;28;8841;-58
2022/12/09 00:13:27;;;;;;;;;16.40;13.40;;;;;2.72;85.58;98951.16;5077541;28;8838;-58
2022/12/09 00:15:55;;;;;;;;;11.40;9.40;;;;;2.74;86.02;98948.44;5077387;28;8834;-58
2022/12/09 00:18:22;;;;;;;;;9.00;9.00;;;;;2.76;85.79;98951.81;5077118;28;8833;-58
2022/12/09 00:20:50;;;;;;;;;14.60;13.40;;;;;2.75;85.86;98950.97;5075256;28;8957;-58
2022/12/09 00:23:18;;;;;;;;;7.00;6.60;;;;;2.76;85.98;98951.81;5077313;28;8825;-57
2022/12/09 00:25:46;;;;;;;;;12.80;11.20;;;;;2.74;85.63;98946.63;5077882;28;8826;-58
2022/12/09 00:28:14;;;;;;;;;15.00;13.80;;;;;2.70;85.60;98946.94;5077154;28;8857;-58
2022/12/09 00:30:42;;;;;;;;;17.20;14.20;;;;;2.62;85.51;98941.31;5077503;28;8818;-58
2022/12/09 00:33:10;;;;;;;;;9.00;8.60;;;;;2.54;86.09;98949.72;5077217;28;8822;-58
2022/12/09 00:35:37;;;;;;;;;8.20;6.20;;;;;2.45;85.53;98950.28;5077103;28;8837;-57
2022/12/09 00:38:05;;;;;;;;;9.60;9.40;;;;;2.37;85.74;98949.06;5077633;28;8818;-58
2022/12/09 00:40:33;;;;;;;;;10.80;9.40;;;;;2.29;86.64;98956.59;5077602;28;8848;-58
2022/12/09 00:43:01;;;;;;;;;13.20;12.40;;;;;2.21;86.03;98953.59;5077246;28;8868;-58
2022/12/09 00:45:29;;;;;;;;;18.60;12.60;;;;;2.12;86.04;98955.00;5077221;28;8818;-58
2022/12/09 00:47:57;;;;;;;;;8.60;5.20;;;;;2.06;86.49;98955.38;5077352;28;8848;-58
2022/12/09 00:50:25;;;;;;;;;9.20;7.40;;;;;1.99;86.55;98961.09;5077550;28;8838;-58
2022/12/09 00:52:53;;;;;;;;;15.00;12.00;;;;;1.94;86.82;98957.91;5077087;28;8822;-58
2022/12/09 00:55:20;;;;;;;;;12.60;10.00;;;;;1.90;86.78;98967.75;5076952;28;8834;-58
2022/12/09 00:57:49;;;;;;;;;12.60;12.40;;;;;1.88;87.04;98959.13;5077314;28;8822;-57
2022/12/09 01:00:16;;;;;;;;;9.20;9.00;;;;;1.93;86.54;98956.22;5077456;28;9550;-58
2022/12/09 01:02:45;;;;;;;;;10.40;9.80;;;;;1.99;86.61;98951.44;5077020;28;8833;-58
2022/12/09 01:05:13;;;;;;;;;13.00;11.20;;;;;2.04;86.61;98954.63;5077092;28;8841;-58
2022/12/09 01:07:41;;;;;;;;;10.40;8.60;;;;;2.10;87.13;98956.03;5076744;28;8838;-58
2022/12/09 01:10:09;;;;;;;;;12.40;12.20;;;;;2.15;86.74;98956.59;5076757;28;8840;-58
2022/12/09 01:12:37;;;;;;;;;15.80;12.80;;;;;2.18;86.61;98949.38;5076857;28;8834;-58
2022/12/09 01:15:05;;;;;;;;;10.20;8.80;;;;;2.21;86.27;98956.22;5076623;28;8849;-58
2022/12/09 01:17:33;;;;;;;;;14.20;12.80;;;;;2.21;86.14;98953.59;5075727;28;8826;-58
2022/12/09 01:20:01;;;;;;;;;6.60;6.60;;;;;2.25;86.14;98958.56;5076654;28;8829;-58
2022/12/09 01:22:29;;;;;;;;;9.40;9.20;;;;;2.26;86.25;98957.63;5076179;28;8813;-58
2022/12/09 01:24:56;;;;;;;;;16.80;12.40;;;;;2.29;87.01;98959.22;5076172;28;8853;-58
2022/12/09 01:27:24;;;;;;;;;14.40;13.80;;;;;2.29;85.98;98956.59;5075972;28;8834;-58
2022/12/09 01:29:52;;;;;;;;;13.40;12.60;;;;;2.31;86.06;98960.81;5076125;28;8940;-58
2022/12/09 01:32:20;;;;;;;;;14.20;13.00;;;;;2.33;85.89;98960.69;5075765;28;8817;-58
2022/12/09 01:34:48;;;;;;;;;15.40;14.60;;;;;2.33;86.23;98953.69;5076076;28;8828;-58
2022/12/09 01:37:16;;;;;;;;;13.00;11.60;;;;;2.35;86.02;98957.03;5076420;28;8864;-58
2022/12/09 01:39:45;;;;;;;;;9.60;8.40;;;;;2.37;86.27;98960.44;5076286;28;8829;-58
2022/12/09 01:42:12;;;;;;;;;12.60;12.60;;;;;2.38;86.16;98961.25;5076431;28;8845;-58
2022/12/09 01:44:40;;;;;;;;;10.60;7.40;;;;;2.38;86.12;98956.88;5076298;28;8810;-58
2022/12/09 01:47:08;;;;;;;;;11.40;9.60;;;;;2.40;86.26;98960.22;5075934;28;8826;-58
2022/12/09 01:49:36;;;;;;;;;12.00;12.00;;;;;2.41;85.83;98955.84;5076614;28;9476;-58
2022/12/09 01:52:07;;;;;;;;;14.00;9.80;;;;;2.41;86.19;98955.84;5076297;28;8833;-58
2022/12/09 01:54:35;;;;;;;;;14.20;12.20;;;;;2.41;86.43;98954.03;5076096;28;8818;-58
2022/12/09 01:57:02;;;;;;;;;12.40;10.00;;;;;2.42;86.29;98952.28;5075723;28;8864;-58
2022/12/09 01:59:30;;;;;;;;;19.40;13.00;;;;;2.43;85.92;98952.16;5075284;28;8944;-58
2022/12/09 02:01:58;;;;;;;;;17.00;15.60;;;;;2.44;85.75;98934.63;5074329;28;8825;-58
2022/12/09 02:04:26;;;;;;;;;18.00;15.40;;;;;2.44;85.64;98945.13;5075959;28;8821;-57
2022/12/09 02:06:54;;;;;;;;;13.40;12.60;;;;;2.45;85.95;98937.16;5075652;28;8850;-58
2022/12/09 02:09:22;;;;;;;;;12.20;10.00;;;;;2.46;85.35;98946.72;5075841;28;8829;-58
2022/12/09 02:11:50;;;;;;;;;20.20;18.20;;;;;2.45;85.53;98931.91;5076098;28;8837;-58
2022/12/09 02:14:18;;;;;;;;;13.00;12.00;;;;;2.45;86.13;98942.41;5075442;28;8836;-58
2022/12/09 02:16:46;;;;;;;;;13.20;10.60;;;;;2.45;85.64;98938.94;5075500;28;8825;-58
2022/12/09 02:19:14;;;;;;;;;8.60;8.60;;;;;2.46;86.24;98935.34;5075996;28;9492;-58
2022/12/09 02:21:41;;;;;;;;;13.00;11.00;;;;;2.47;85.79;98935.28;5075558;28;8829;-58
2022/12/09 02:24:09;;;;;;;;;12.60;9.60;;;;;2.47;85.91;98926.53;5075585;28;8928;-58
2022/12/09 02:26:37;;;;;;;;;10.40;10.40;;;;;2.48;85.74;98933.47;5075510;28;8826;-58
2022/12/09 02:29:06;;;;;;;;;14.60;12.40;;;;;2.49;85.97;98929.94;5075570;28;8829;-58
2022/12/09 02:31:34;;;;;;;;;13.00;13.00;;;;;2.49;85.87;98927.31;5075457;28;8849;-58
2022/12/09 02:34:02;;;;;;;;;10.40;7.80;;;;;2.48;85.98;98926.44;5075227;28;8814;-58
2022/12/09 02:36:30;;;;;;;;;7.00;6.60;;;;;2.50;85.83;98923.72;5075295;28;8861;-58
2022/12/09 02:38:57;;;;;;;;;5.80;4.80;;;;;2.53;86.08;98928.78;5075478;28;8915;-58
2022/12/09 02:41:26;;;;;;;;;8.00;8.00;;;;;2.53;86.06;98926.16;5075130;28;8853;-58
2022/12/09 02:43:54;;;;;;;;;11.60;9.80;;;;;2.51;85.52;98926.25;5075615;28;8818;-58
2022/12/09 02:46:21;;;;;;;;;8.00;7.20;;;;;2.51;85.99;98922.78;5079560;28;8829;-58
2022/12/09 02:48:49;;;;;;;;;3.20;2.00;;;;;2.51;85.76;98922.78;5079521;28;8810;-58
2022/12/09 02:51:17;;;;;;;;;6.60;4.80;;;;;2.54;85.71;98926.06;5079518;28;8995;-58
2022/12/09 02:53:45;;;;;;;;;9.00;7.80;;;;;2.55;85.83;98921.63;5079682;28;8918;-57
2022/12/09 02:56:13;;;;;;;;;19.20;14.00;;;;;2.56;85.48;98918.91;5079315;28;8822;-58
2022/12/09 02:58:41;;;;;;;;;7.40;7.40;;;;;2.56;85.84;98924.19;5079386;28;8810;-58
2022/12/09 03:01:09;;;;;;;;;8.60;6.80;;;;;2.58;85.24;98917.03;5079435;28;8843;-58
2022/12/09 03:03:37;;;;;;;;;11.20;8.80;;;;;2.58;85.41;98914.41;5079336;28;8837;-58
2022/12/09 03:06:06;;;;;;;;;3.80;3.00;;;;;2.60;85.68;98909.91;5078792;28;8814;-58
2022/12/09 03:08:34;;;;;;;;;9.20;7.80;;;;;2.61;86.04;98911.59;5079671;28;8895;-58
2022/12/09 03:11:02;;;;;;;;;12.40;12.00;;;;;2.62;85.52;98913.28;5079106;28;8883;-58
2022/12/09 03:13:30;;;;;;;;;12.20;9.80;;;;;2.64;85.52;98921.06;5078983;28;8814;-58
2022/12/09 03:15:58;;;;;;;;;14.20;12.60;;;;;2.64;85.32;98918.44;5079059;28;8838;-58
2022/12/09 03:18:29;;;;;;;;;11.60;9.60;;;;;2.65;85.34;98920.94;5078936;28;8829;-58
2022/12/09 03:20:56;;;;;;;;;14.20;13.20;;;;;2.67;85.63;98915.59;5079027;28;8846;-58
2022/12/09 03:23:24;;;;;;;;;3.20;3.00;;;;;2.67;85.51;98913.84;5079023;28;8806;-58
2022/12/09 03:25:52;;;;;;;;;9.60;9.20;;;;;2.67;85.15;98911.22;5079104;28;8806;-58
2022/12/09 03:28:20;;;;;;;;;9.20;7.00;;;;;2.68;85.31;98901.53;5078995;28;9518;-58
2022/12/09 03:30:48;;;;;;;;;12.00;10.00;;;;;2.68;85.26;98905.00;5079375;28;8822;-58
2022/12/09 03:33:16;;;;;;;;;10.80;9.20;;;;;2.69;85.67;98904.06;5079195;28;8822;-58
2022/12/09 03:35:43;;;;;;;;;12.80;11.60;;;;;2.71;85.26;98907.44;5078507;28;8861;-58
2022/12/09 03:38:11;;;;;;;;;13.60;11.00;;;;;2.71;84.96;98902.16;5078872;28;8861;-58
2022/12/09 03:40:39;;;;;;;;;11.20;10.40;;;;;2.71;85.34;98896.91;5078934;28;8810;-58
2022/12/09 03:43:07;;;;;;;;;12.20;9.80;;;;;2.71;84.96;98899.53;5078368;28;8841;-58
2022/12/09 03:45:35;;;;;;;;;11.60;11.00;;;;;2.72;85.89;98897.78;5078572;28;8830;-57
2022/12/09 03:48:03;;;;;;;;;9.40;9.00;;;;;2.72;85.62;98893.34;5078550;28;8834;-58
2022/12/09 03:50:31;;;;;;;;;7.60;7.60;;;;;2.73;85.59;98900.28;5078295;28;8818;-57
2022/12/09 03:52:58;;;;;;;;;11.20;11.20;;;;;2.72;85.27;98892.50;5078606;28;8818;-57
2022/12/09 03:55:27;;;;;;;;;13.00;12.60;;;;;2.72;85.87;98895.16;5078391;28;8834;-58
2022/12/09 03:57:54;;;;;;;;;11.20;10.20;;;;;2.71;85.31;98891.66;5078343;28;8833;-58
2022/12/09 04:00:22;;;;;;;;;11.00;8.60;;;;;2.71;85.26;98896.91;5078116;28;8953;-58
2022/12/09 04:02:50;;;;;;;;;10.40;9.00;;;;;2.73;84.93;98886.31;5078582;28;9491;-57
2022/12/09 04:05:18;;;;;;;;;12.20;10.40;;;;;2.72;85.48;98885.47;5078413;28;8821;-57
2022/12/09 04:07:48;;;;;;;;;14.00;12.00;;;;;2.71;85.47;98881.16;5078084;28;8939;-58
2022/12/09 04:10:15;;;;;;;;;11.20;11.20;;;;;2.71;85.35;98877.66;5078183;28;8848;-57
2022/12/09 04:12:43;;;;;;;;;8.20;6.80;;;;;2.70;85.48;98874.22;5077677;28;8818;-58
2022/12/09 04:15:11;;;;;;;;;7.00;6.20;;;;;2.68;85.42;98865.59;5077521;28;8818;-58
2022/12/09 04:17:39;;;;;;;;;10.00;9.60;;;;;2.67;85.70;98870.94;5077621;28;8830;-58
2022/12/09 04:20:08;;;;;;;;;12.20;11.20;;;;;2.66;85.28;98869.25;5077857;28;8833;-58
2022/12/09 04:22:36;;;;;;;;;8.00;7.80;;;;;2.64;85.66;98869.34;5077926;28;8836;-56
2022/12/09 04:25:04;;;;;;;;;5.60;4.40;;;;;2.64;85.43;98865.91;5077929;28;9499;-57
2022/12/09 04:27:31;;;;;;;;;7.00;6.20;;;;;2.63;85.42;98872.91;5078256;28;8955;-58
2022/12/09 04:29:59;;;;;;;;;8.40;7.80;;;;;2.63;85.82;98872.06;5077515;28;8818;-58
2022/12/09 04:32:27;;;;;;;;;7.40;7.40;;;;;2.61;85.28;98872.19;5077401;28;8833;-56
2022/12/09 04:34:55;;;;;;;;;13.40;11.80;;;;;2.62;86.03;98871.25;5077557;28;8961;-55
2022/12/09 04:37:23;;;;;;;;;13.40;12.40;;;;;2.63;85.75;98872.91;5076475;28;8944;-57
2022/12/09 04:39:50;;;;;;;;;15.20;13.00;;;;;2.64;85.45;98869.34;5075682;28;8930;-57
2022/12/09 04:42:18;;;;;;;;;13.00;12.60;;;;;2.62;85.58;98876.50;5075654;28;8829;-58
2022/12/09 04:44:47;;;;;;;;;15.20;12.00;;;;;2.58;86.16;98875.00;5075570;28;8906;-58
2022/12/09 04:47:14;;;;;;;;;12.60;11.20;;;;;2.50;85.44;98872.03;5075135;28;8846;-57
2022/12/09 04:49:42;;;;;;;;;11.20;9.80;;;;;2.46;85.55;98880.19;5075839;28;8818;-57
2022/12/09 04:52:10;;;;;;;;;8.20;7.80;;;;;2.41;85.71;98869.16;5075880;28;8841;-58
2022/12/09 04:54:38;;;;;;;;;12.20;10.80;;;;;2.41;86.03;98877.88;5076035;28;8826;-58
2022/12/09 04:57:06;;;;;;;;;6.20;3.80;;;;;2.43;86.16;98875.97;5076622;28;8825;-58
2022/12/09 04:59:33;;;;;;;;;9.80;9.80;;;;;2.49;85.87;98872.13;5076980;28;8813;-58
2022/12/09 05:02:01;;;;;;;;;10.80;10.40;;;;;2.51;86.00;98871.06;5076370;28;8838;-57
2022/12/09 05:04:29;;;;;;;;;14.20;13.20;;;;;2.55;86.37;98869.09;5076472;28;8855;-58
2022/12/09 05:06:57;;;;;;;;;11.40;10.20;;;;;2.60;86.03;98869.66;5075224;28;8833;-58
2022/12/09 05:09:26;;;;;;;;;11.20;9.00;;;;;2.61;85.36;98864.31;5076758;28;8845;-57
2022/12/09 05:11:54;;;;;;;;;13.80;12.40;;;;;2.63;85.91;98867.66;5076379;28;8854;-58
2022/12/09 05:14:22;;;;;;;;;13.60;12.40;;;;;2.66;85.22;98870.09;5076220;28;8834;-57
2022/12/09 05:16:50;;;;;;;;;10.20;8.60;;;;;2.69;85.52;98877.78;5076046;28;8852;-56
2022/12/09 05:19:18;;;;;;;;;11.60;7.80;;;;;2.71;85.64;98872.41;5076538;28;8845;-56
2022/12/09 05:21:47;;;;;;;;;8.80;8.80;;;;;2.72;85.36;98872.31;5075795;28;8917;-58
2022/12/09 05:24:14;;;;;;;;;11.20;9.60;;;;;2.72;85.69;98877.56;5076084;28;8841;-57
2022/12/09 05:26:42;;;;;;;;;8.60;7.00;;;;;2.72;84.81;98877.56;5076457;28;8817;-57
2022/12/09 05:29:10;;;;;;;;;18.60;17.80;;;;;2.72;85.15;98885.47;5076492;28;8848;-58
2022/12/09 05:31:42;;;;;;;;;16.80;15.40;;;;;2.71;85.14;98875.03;5076164;28;8959;-57
2022/12/09 05:34:10;;;;;;;;;19.20;18.40;;;;;2.72;85.82;98877.56;5075753;28;9499;-57
2022/12/09 05:36:38;;;;;;;;;16.00;14.20;;;;;2.75;85.47;98871.28;5075710;28;9515;-58
2022/12/09 05:39:06;;;;;;;;;14.20;12.40;;;;;2.76;84.89;98871.19;5075096;28;8814;-56
2022/12/09 05:41:34;;;;;;;;;15.00;13.60;;;;;2.76;85.24;98879.06;5075564;28;9651;-57
2022/12/09 05:44:02;;;;;;;;;16.00;12.40;;;;;2.75;84.96;98880.03;5074706;28;8869;-58
2022/12/09 05:46:30;;;;;;;;;7.00;6.80;;;;;2.74;85.53;98880.94;5075389;28;8833;-57
2022/12/09 05:48:58;;;;;;;;;13.80;12.00;;;;;2.75;85.25;98871.28;5075368;28;8829;-58
2022/12/09 05:51:27;;;;;;;;;13.40;13.00;;;;;2.72;85.17;98877.56;5075016;28;8848;-56
2022/12/09 05:53:56;;;;;;;;;13.00;10.00;;;;;2.71;85.73;98878.53;5073826;28;8977;-58
2022/12/09 05:56:23;;;;;;;;;10.40;8.60;;;;;2.68;85.61;98878.72;5073931;28;8913;-56
2022/12/09 05:58:54;;;;;;;;;1.80;1.80;;;;;2.66;85.71;98877.13;5074304;28;8843;-55
2022/12/09 06:01:22;;;;;;;;;12.40;10.00;;;;;2.64;85.44;98871.97;5074166;28;8830;-58
2022/12/09 06:03:50;;;;;;;;;14.60;11.60;;;;;2.63;85.32;98872.06;5072560;28;8853;-57
2022/12/09 06:06:19;;;;;;;;;12.20;12.20;;;;;2.62;85.82;98870.38;5072707;28;8842;-58
2022/12/09 06:08:47;;;;;;;;;13.20;10.60;;;;;2.62;85.39;98862.50;5072787;28;8842;-57
2022/12/09 06:11:16;;;;;;;;;6.40;6.40;;;;;2.61;85.50;98859.06;5072746;28;8861;-56
2022/12/09 06:13:44;;;;;;;;;10.00;10.00;;;;;2.63;85.65;98866.81;5073082;28;8838;-58
2022/12/09 06:16:12;;;;;;;;;9.60;7.80;;;;;2.63;85.88;98857.16;5072046;28;8829;-57
2022/12/09 06:18:41;;;;;;;;;11.60;11.60;;;;;2.65;85.48;98850.00;5073113;28;8834;-58
2022/12/09 06:21:09;;;;;;;;;12.00;11.60;;;;;2.65;85.84;98855.25;5071570;28;9616;-58
2022/12/09 06:23:37;;;;;;;;;4.80;4.40;;;;;2.63;85.88;98859.78;5072403;28;8834;-58
2022/12/09 06:26:05;;;;;;;;;11.60;9.60;;;;;2.65;85.72;98847.38;5071347;28;8842;-58
2022/12/09 06:28:33;;;;;;;;;11.60;9.80;;;;;2.63;85.98;98856.31;5071598;28;8860;-58
2022/12/09 06:31:01;;;;;;;;;19.60;16.00;;;;;2.60;85.43;98853.88;5071777;28;8836;-57
2022/12/09 06:33:29;;;;;;;;;11.80;11.00;;;;;2.58;86.17;98859.22;5071401;28;8845;-57
2022/12/09 06:36:17;;;;;;;;;17.20;15.20;;;;;2.56;85.36;98849.78;5070719;28;8861;-58
2022/12/09 06:38:46;;;;;;;;;12.60;9.80;;;;;2.55;85.41;98855.97;5070756;28;9479;-58
2022/12/09 06:41:13;;;;;;;;;15.20;14.40;;;;;2.55;85.95;98853.34;5072115;28;8817;-56
2022/12/09 06:43:41;;;;;;;;;8.80;8.80;;;;;2.51;85.49;98860.56;5071133;28;8855;-58
2022/12/09 06:46:09;;;;;;;;;4.80;3.20;;;;;2.46;85.47;98852.16;5070853;28;9558;-57
2022/12/09 06:48:37;;;;;;;;;12.00;10.60;;;;;2.44;86.03;98856.66;5070342;28;8895;-55
2022/12/09 06:51:05;;;;;;;;;9.80;7.80;;;;;2.43;85.57;98860.22;5071493;28;8989;-57
2022/12/09 06:53:33;;;;;;;;;12.00;10.60;;;;;2.43;85.78;98854.13;5071015;28;8833;-58
2022/12/09 06:56:02;;;;;;;;;11.20;9.60;;;;;2.42;85.64;98858.53;5070698;28;8853;-58
2022/12/09 06:58:37;;;;;;;;;10.80;9.80;;;;;2.41;85.48;98859.47;5070014;28;8859;-58
2022/12/09 07:01:07;;;;;;;;;9.80;9.00;;;;;2.42;85.64;98863.78;5069230;28;9546;-58
2022/12/09 07:03:35;;;;;;;;;8.60;7.00;;;;;2.43;85.80;98870.72;5069276;28;9514;-58
2022/12/09 07:06:03;;;;;;;;;14.00;12.40;;;;;2.42;85.87;98857.72;5068561;28;8830;-58
2022/12/09 07:08:31;;;;;;;;;12.80;12.00;;;;;2.43;85.59;98867.28;5068449;28;8844;-58
2022/12/09 07:11:00;;;;;;;;;18.80;15.00;;;;;2.40;85.49;98860.44;5069260;28;8852;-58
2022/12/09 07:13:28;;;;;;;;;12.20;9.60;;;;;2.40;86.02;98864.81;5068987;28;8876;-58
2022/12/09 07:15:56;;;;;;;;;6.00;5.20;;;;;2.38;85.60;98867.56;5068731;28;8964;-58
2022/12/09 07:18:24;;;;;;;;;15.80;13.80;;;;;2.39;85.88;98864.00;5069280;28;8872;-58
2022/12/09 07:20:53;;;;;;;;;10.80;10.60;;;;;2.39;86.21;98873.66;5070189;28;8830;-58
2022/12/09 07:23:21;;;;;;;;;12.20;10.00;;;;;2.36;85.52;98879.94;5070934;28;8927;-58
2022/12/09 07:25:48;;;;;;;;;11.80;10.00;;;;;2.33;85.95;98880.13;5070538;28;8872;-58
2022/12/09 07:28:16;;;;;;;;;12.80;12.80;;;;;2.28;85.20;98874.31;5069843;28;8830;-57
2022/12/09 07:30:44;;;;;;;;;15.60;14.60;;;;;2.25;85.86;98874.53;5071468;28;8971;-58
2022/12/09 07:33:13;;;;;;;;;11.40;10.00;;;;;2.20;85.92;98879.22;5074783;28;8830;-58
2022/12/09 07:35:42;;;;;;;;;15.40;13.40;;;;;2.13;85.57;98877.91;5074961;28;8833;-58
2022/12/09 07:38:10;;;;;;;;;11.80;11.00;;;;;2.08;86.07;98880.00;5076060;28;9504;-58
2022/12/09 07:40:39;;;;;;;;;12.00;10.00;;;;;2.05;85.89;98887.22;5076146;28;8853;-58
2022/12/09 07:43:07;;;;;;;;;15.80;15.00;;;;;2.00;86.37;98889.28;5076483;28;8923;-58
2022/12/09 07:45:36;;;;;;;;;11.80;11.20;;;;;1.95;86.36;98891.34;5074866;28;8851;-58
2022/12/09 07:48:04;;;;;;;;;11.60;9.00;;;;;1.90;86.22;98891.63;5074133;28;8825;-58
2022/12/09 07:50:32;;;;;;;;;9.60;7.00;;;;;1.83;86.97;98890.31;5074050;28;8837;-57
2022/12/09 07:53:00;;;;;;;;;11.20;10.00;;;;;1.76;86.53;98886.38;5074001;28;9511;-56
2022/12/09 07:55:28;;;;;;;;;15.00;10.40;;;;;1.67;86.39;98888.75;5072651;28;8841;-58
2022/12/09 07:57:57;;;;;;;;;12.20;8.80;;;;;1.58;86.43;98887.50;5072665;28;8976;-58
2022/12/09 08:00:24;;;;;;;;;6.00;6.00;;;;;1.51;86.67;98894.06;5073105;28;8860;-57
2022/12/09 08:02:53;;;;;;;;;13.00;11.20;;;;;1.44;86.56;98897.16;5073160;28;8911;-57
2022/12/09 08:05:21;;;;;;;;;9.80;9.20;;;;;1.39;86.92;98899.19;5072160;28;8830;-58
2022/12/09 08:07:49;;;;;;;;;10.80;9.60;;;;;1.36;86.72;98905.47;5073795;28;8846;-57
2022/12/09 08:10:18;;;;;;;;;9.40;9.00;;;;;1.35;87.15;98905.56;5073988;28;8826;-58
2022/12/09 08:12:47;;;;;;;;;9.40;8.20;;;;;1.36;87.53;98902.84;5074404;28;8864;-55
2022/12/09 08:15:18;;;;;;;;;13.20;12.80;;;;;1.41;87.54;98908.66;5073569;28;8826;-57
2022/12/09 08:17:45;;;;;;;;;6.60;6.60;;;;;1.46;87.65;98911.00;5074148;28;8822;-57
2022/12/09 08:20:13;;;;;;;;;17.00;13.60;;;;;1.52;86.87;98906.25;5074544;28;9242;-57
2022/12/09 08:22:43;;;;;;;;;11.20;10.40;;;;;1.56;87.11;98910.38;5074706;28;8818;-55
2022/12/09 08:25:14;;;;;;;;;10.20;7.20;;;;;1.61;87.06;98897.81;5074883;28;8854;-57
2022/12/09 08:27:43;;;;;;;;;14.40;12.80;;;;;1.66;86.98;98901.00;5075357;28;8826;-57
2022/12/09 08:30:11;;;;;;;;;14.20;11.40;;;;;1.71;86.56;98906.84;5075442;28;8830;-57
2022/12/09 08:32:40;;;;;;;;;10.00;8.60;;;;;1.76;86.64;98903.94;5074052;28;8833;-57
2022/12/09 08:35:13;;;;;;;;;7.60;6.40;;;;;1.81;86.37;98905.31;5073660;28;9616;-57
2022/12/09 08:37:42;;;;;;;;;13.00;12.20;;;;;1.86;86.18;98899.78;5073298;28;8925;-57
2022/12/09 08:40:10;;;;;;;;;11.20;9.60;;;;;1.90;86.77;98894.25;5072607;28;9511;-56
2022/12/09 08:42:38;;;;;;;;;7.00;3.40;;;;;1.94;85.96;98895.78;5070489;28;8829;-57
2022/12/09 08:45:06;;;;;;;;;12.00;10.80;;;;;2.02;86.61;98892.66;5071243;28;8845;-57
2022/12/09 08:47:35;;;;;;;;;9.80;8.80;;;;;2.09;86.11;98896.59;5071240;28;8834;-57
2022/12/09 08:50:03;;;;;;;;;11.20;10.00;;;;;2.16;85.76;98893.50;5070434;28;8825;-57
2022/12/09 08:52:32;;;;;;;;;12.00;11.00;;;;;2.28;86.37;98889.25;5070877;28;9503;-56
2022/12/09 08:55:07;;;;;;;;;14.00;13.40;;;;;2.38;85.52;98891.22;5070988;28;8861;-58
2022/12/09 08:57:35;;;;;;;;;11.60;11.60;;;;;2.48;85.22;98889.66;5071346;28;8960;-57
2022/12/09 09:00:03;;;;;;;;;8.20;6.40;;;;;2.58;85.78;98884.69;5071294;28;8930;-58
2022/12/09 09:02:32;;;;;;;;;11.40;11.20;;;;;2.68;84.82;98886.63;5071355;28;8844;-55
2022/12/09 09:05:00;;;;;;;;;16.80;16.00;;;;;2.77;85.79;98890.41;5072288;28;8861;-58
2022/12/09 09:07:29;;;;;;;;;14.20;13.40;;;;;2.84;85.43;98882.03;5071590;28;8866;-57
2022/12/09 09:09:59;;;;;;;;;15.80;14.80;;;;;2.88;84.99;98880.88;5072605;28;8842;-56
2022/12/09 09:12:28;;;;;;;;;10.40;9.40;;;;;2.94;84.70;98879.66;5071865;28;8853;-57
2022/12/09 09:14:57;;;;;;;;;12.40;10.60;;;;;3.01;84.87;98889.66;5072615;28;8814;-55
2022/12/09 09:17:25;;;;;;;;;15.40;13.40;;;;;3.08;85.14;98885.69;5073030;28;8834;-57
2022/12/09 09:19:53;;;;;;;;;14.40;12.80;;;;;3.15;84.40;98886.97;5073754;28;8830;-57
2022/12/09 09:22:21;;;;;;;;;12.40;10.40;;;;;3.27;85.00;98895.81;5074022;28;8972;-55
2022/12/09 09:24:51;;;;;;;;;16.20;14.80;;;;;3.34;84.61;98897.09;5072938;28;8841;-56
2022/12/09 09:27:22;;;;;;;;;10.20;9.60;;;;;3.43;84.34;98902.59;5073249;28;8818;-58
2022/12/09 09:29:50;;;;;;;;;19.00;17.20;;;;;3.53;84.24;98900.16;5072946;28;8829;-57
2022/12/09 09:32:18;;;;;;;;;17.20;15.60;;;;;3.60;84.43;98899.63;5073531;28;8913;-58
2022/12/09 09:34:49;;;;;;;;;18.20;14.60;;;;;3.69;84.34;98895.56;5072298;28;8852;-57
2022/12/09 09:37:17;;;;;;;;;13.40;12.20;;;;;3.70;83.47;98895.41;5071269;28;8838;-56
2022/12/09 09:39:45;;;;;;;;;12.40;12.00;;;;;3.72;83.63;98895.31;5070425;28;8931;-57
2022/12/09 09:42:13;;;;;;;;;15.20;13.80;;;;;3.67;83.44;98901.72;5069672;28;8834;-58
2022/12/09 09:44:41;;;;;;;;;10.40;10.40;;;;;3.64;83.94;98905.53;5069694;28;8841;-58
2022/12/09 09:47:10;;;;;;;;;13.80;12.60;;;;;3.60;83.57;98904.91;5068956;28;8927;-57
2022/12/09 09:49:38;;;;;;;;;12.00;9.40;;;;;3.56;84.12;98910.47;5069018;28;8858;-56
2022/12/09 09:52:07;;;;;;;;;13.80;13.00;;;;;3.54;84.00;98910.56;5070347;28;8959;-57
2022/12/09 09:54:35;;;;;;;;;15.60;13.20;;;;;3.55;84.62;98909.63;5069214;28;8837;-58
2022/12/09 09:57:03;;;;;;;;;4.00;4.00;;;;;3.59;83.82;98900.59;5069420;28;8964;-56
2022/12/09 09:59:32;;;;;;;;;15.20;14.60;;;;;3.68;83.80;98902.59;5067736;28;9535;-57
2022/12/09 10:02:00;;;;;;;;;12.00;11.40;;;;;3.86;83.86;98901.31;5068788;28;8834;-55
2022/12/09 10:04:28;;;;;;;;;13.00;12.80;;;;;4.21;83.42;98892.66;5069806;28;9527;-58
2022/12/09 10:06:57;;;;;;;;;15.00;14.20;;;;;4.66;82.65;98883.22;5069690;28;8834;-57
2022/12/09 10:09:33;;;;;;;;;18.80;17.40;;;;;5.01;81.87;98878.84;5069618;28;8876;-57
2022/12/09 10:12:02;;;;;;;;;15.00;13.40;;;;;5.15;81.50;98870.72;5070984;28;8927;-56
2022/12/09 10:14:30;;;;;;;;;13.80;12.00;;;;;5.54;81.08;98867.75;5071573;28;8849;-58
2022/12/09 10:16:58;;;;;;;;;16.40;13.40;;;;;6.03;80.03;98861.22;5071154;28;8892;-57
2022/12/09 10:19:27;;;;;;;;;16.20;14.20;;;;;6.22;79.68;98864.06;5071598;28;8865;-57
2022/12/09 10:21:55;;;;;;;;;15.00;14.60;;;;;6.23;79.93;98870.19;5071385;28;9182;-58
2022/12/09 10:24:24;;;;;;;;;16.40;13.80;;;;;6.07;79.61;98864.44;5070657;28;8837;-58
2022/12/09 10:26:53;;;;;;;;;22.40;18.60;;;;;5.79;80.49;98862.25;5071579;28;8977;-57
2022/12/09 10:29:21;;;;;;;;;19.00;18.40;;;;;5.61;81.39;98868.94;5071084;28;8846;-56
2022/12/09 10:31:49;;;;;;;;;12.60;11.20;;;;;5.49;81.34;98854.03;5070729;28;9464;-58
2022/12/09 10:34:18;;;;;;;;;9.00;9.00;;;;;5.44;81.70;98851.75;5070654;28;8860;-58
2022/12/09 10:36:47;;;;;;;;;13.20;12.00;;;;;5.40;81.72;98854.75;5070175;28;8860;-58
2022/12/09 10:39:17;;;;;;;;;13.20;11.80;;;;;5.30;82.19;98848.47;5070173;28;8834;-56
2022/12/09 10:44:31;;;;;;;;;14.20;13.60;;;;;5.13;82.39;98846.25;5067020;28;8842;-57
2022/12/09 10:46:59;;;;;;;;;18.20;14.80;;;;;5.04;82.19;98852.22;5068713;28;8830;-58
2022/12/09 10:49:29;;;;;;;;;16.60;15.60;;;;;5.00;82.41;98851.63;5068926;28;8822;-58
2022/12/09 10:51:57;;;;;;;;;19.00;18.00;;;;;4.98;82.58;98852.69;5069836;28;8976;-57
2022/12/09 10:54:25;;;;;;;;;16.00;15.60;;;;;4.94;82.59;98854.72;5069782;28;8830;-56
2022/12/09 10:56:54;;;;;;;;;15.80;13.20;;;;;4.88;82.77;98852.53;5070249;28;8850;-57
2022/12/09 10:59:22;;;;;;;;;10.40;7.80;;;;;4.84;82.99;98850.22;5071043;28;8837;-58
2022/12/09 11:01:53;;;;;;;;;21.20;18.40;;;;;4.83;83.33;98856.47;5070490;28;8868;-58
2022/12/09 11:04:21;;;;;;;;;19.40;17.40;;;;;4.86;83.22;98848.34;5069423;28;8837;-58
2022/12/09 11:06:49;;;;;;;;;21.60;17.60;;;;;4.86;82.89;98849.16;5073320;28;8942;-56
2022/12/09 11:09:25;;;;;;;;;25.20;22.80;;;;;4.86;83.28;98850.97;5067982;28;8981;-55
2022/12/09 11:11:55;;;;;;;;;23.00;20.20;;;;;4.84;83.30;98850.22;5074472;28;8825;-57
2022/12/09 11:14:24;;;;;;;;;15.20;12.40;;;;;4.81;83.36;98848.69;5074074;28;9484;-57
2022/12/09 11:16:52;;;;;;;;;16.40;12.00;;;;;4.78;82.74;98851.53;5072955;28;8838;-58
2022/12/09 11:19:20;;;;;;;;;16.00;14.00;;;;;4.75;82.99;98850.91;5073512;28;8841;-58
2022/12/09 11:21:48;;;;;;;;;26.80;25.00;;;;;4.70;83.00;98856.53;5074421;28;9329;-55
2022/12/09 11:24:18;;;;;;;;;11.20;10.00;;;;;4.66;83.45;98847.19;5073812;28;8825;-57
2022/12/09 11:26:47;;;;;;;;;25.80;24.00;;;;;4.66;83.11;98846.31;5073649;28;8834;-57
2022/12/09 11:29:16;;;;;;;;;18.80;17.80;;;;;4.66;83.44;98846.31;5072383;28;8821;-58
2022/12/09 11:31:44;;;;;;;;;12.80;12.00;;;;;4.67;83.07;98848.00;5071527;28;8839;-58
2022/12/09 11:34:13;;;;;;;;;15.20;14.60;;;;;4.67;83.34;98845.38;5071298;28;8846;-57
2022/12/09 11:36:42;;;;;;;;;17.80;15.20;;;;;4.67;83.39;98840.09;5071620;28;8854;-58
2022/12/09 11:39:10;;;;;;;;;4.80;4.00;;;;;4.67;83.09;98832.19;5071514;28;8844;-58
2022/12/09 11:44:24;;;;;;;;;9.20;6.00;;;;;4.81;83.28;98829.38;5070012;28;8846;-57
2022/12/09 11:46:53;;;;;;;;;10.40;7.00;;;;;4.93;82.56;98828.47;5069894;28;9649;-58
2022/12/09 11:49:21;;;;;;;;;6.00;6.00;;;;;5.33;81.92;98824.50;5068408;28;9003;-58